Sea Aeolis — 3FMJ4 — position and weather

sailwx.info

Track history (hours):
 
Tides and Currents Weather Stations Pressure Air Temp Water Temp Dewpoint Dewpoint Depression Visibility Wind Speed Wind Dir Waves Ship Positions

Sea Aeolis

Last reported at 2017-Dec-10 02:32 UTC. Time now 2017-Dec-12 20:06 UTC.
Position N 40°59' E 028°60'.

Length 108 m; draft 5.9 m.

Type: Cargo ship. MMSI: 353430000.

Date/timePositionNaut miles runAvg speedWind from/ knotsBaromVisibWave heightAir tempDewpointWater temp
2017-Dec-10 02:32N 40°59' E 028°60'012.7
2017-Dec-10 02:30N 40°59' E 028°60'611.5
2017-Dec-10 01:59N 40°54' E 028°56'4 8.6
2017-Dec-10 01:29N 40°49' E 028°55'1 2.0
2017-Dec-10 00:56N 40°49' E 028°54'26311.4
2017-Dec-09 01:54N 37°57' E 024°36'512.5
2017-Dec-09 01:30N 37°53' E 024°31'612.2
2017-Dec-09 01:00N 37°50' E 024°25'712.3
2017-Dec-09 00:27N 37°45' E 024°19'612.6
2017-Dec-08 23:57N 37°41' E 024°12'512.5
2017-Dec-08 23:30N 37°38' E 024°07'611.8
2017-Dec-08 23:00N 37°37' E 023°59'612.5
2017-Dec-08 22:30N 37°38' E 023°52'612.5
2017-Dec-08 22:00N 37°39' E 023°44'612.2
2017-Dec-08 21:30N 37°44' E 023°40'612.6
2017-Dec-08 21:00N 37°50' E 023°37'612.4
2017-Dec-08 20:30N 37°56' E 023°36'2 3.4
2017-Dec-08 20:00N 37°58' E 023°36'0 0.0
2017-Dec-08 19:30N 37°58' E 023°36'0 0.0
2017-Dec-08 19:00N 37°58' E 023°36'0 0.0
2017-Dec-08 18:30N 37°58' E 023°36'0 0.0
2017-Dec-08 18:00N 37°58' E 023°36'0 0.0
2017-Dec-08 17:30N 37°58' E 023°36'0 0.0
2017-Dec-08 16:51N 37°58' E 023°36'0 0.0
2017-Dec-08 16:30N 37°58' E 023°36'0 0.0
2017-Dec-08 16:00N 37°58' E 023°36'0 0.0
2017-Dec-08 15:30N 37°58' E 023°36'0 0.0
2017-Dec-08 15:00N 37°58' E 023°36'0 0.0
2017-Dec-08 14:30N 37°58' E 023°36'0 0.0
2017-Dec-08 14:00N 37°58' E 023°36'0 0.0
2017-Dec-08 13:30N 37°58' E 023°36'0 0.0
2017-Dec-08 13:00N 37°58' E 023°36'0 0.0
2017-Dec-08 12:30N 37°58' E 023°36'0 0.0
2017-Dec-08 12:00N 37°58' E 023°36'0 0.0
2017-Dec-08 11:30N 37°58' E 023°36'0 0.1
2017-Dec-08 11:00N 37°57' E 023°36'3 5.3
2017-Dec-08 10:30N 37°55' E 023°36'1 1.4
2017-Dec-08 10:00N 37°54' E 023°36'3 5.8
2017-Dec-08 09:30N 37°52' E 023°39'612.9
2017-Dec-08 09:00N 37°46' E 023°42'612.8
2017-Dec-08 08:31N 37°40' E 023°46'712.9
2017-Dec-08 08:00N 37°39' E 023°54'613.0
2017-Dec-08 07:30N 37°37' E 024°02'712.4
2017-Dec-08 06:59N 37°39' E 024°09'713.5
2017-Dec-08 06:28N 37°44' E 024°16'613.4
2017-Dec-08 06:00N 37°48' E 024°22'714.0
2017-Dec-08 05:31N 37°52' E 024°29'913.4
2017-Dec-08 04:50N 37°59' E 024°36'413.0
2017-Dec-08 04:30N 38°03' E 024°39'712.9
2017-Dec-08 03:56N 38°09' E 024°43'  
2017-Dec-03 22:03N 43°40' E 035°18'4912.6
2017-Dec-03 18:08N 44°03' E 036°19'312.8
2017-Dec-03 17:54N 44°04' E 036°22'512.8
2017-Dec-03 17:30N 44°06' E 036°29'612.8
2017-Dec-03 17:00N 44°09' E 036°37'612.7
2017-Dec-03 16:31N 44°11' E 036°45'812.9
2017-Dec-03 15:53N 44°15' E 036°55'513.0
2017-Dec-03 15:30N 44°18' E 037°01'713.7
2017-Dec-03 15:00N 44°21' E 037°09'813.4
2017-Dec-03 14:24N 44°24' E 037°20'612.8
2017-Dec-03 13:58N 44°27' E 037°27'612.8
2017-Dec-03 13:30N 44°29' E 037°34'612.7
2017-Dec-03 13:00N 44°32' E 037°42'612.6
2017-Dec-03 12:30N 44°37' E 037°48'4 7.9
2017-Dec-03 12:00N 44°41' E 037°50'3 5.2
2017-Dec-03 11:30N 44°43' E 037°49'0 0.0
2017-Dec-03 11:00N 44°43' E 037°49'0 0.0
2017-Dec-03 10:30N 44°43' E 037°49'0 0.0
2017-Dec-03 10:00N 44°43' E 037°49'0 0.0
2017-Dec-03 09:30N 44°43' E 037°49'0 0.0
2017-Dec-03 09:00N 44°43' E 037°49'0 0.0
2017-Dec-03 08:30N 44°43' E 037°49'0 0.0
2017-Dec-03 08:00N 44°43' E 037°49'0 0.0
2017-Dec-03 07:30N 44°43' E 037°49'0 0.0
2017-Dec-03 07:00N 44°43' E 037°49'0 0.0
2017-Dec-03 06:30N 44°43' E 037°49'0 0.0
2017-Dec-03 06:00N 44°43' E 037°49'0 0.0
2017-Dec-03 05:30N 44°43' E 037°49'0 0.0
2017-Dec-03 05:00N 44°43' E 037°49'0 0.1
2017-Dec-03 04:30N 44°43' E 037°49'1 1.4
2017-Dec-03 04:00N 44°43' E 037°49'2 4.0
2017-Dec-03 03:30N 44°41' E 037°50'3 6.4
2017-Dec-03 03:00N 44°38' E 037°52'4 8.6
2017-Dec-03 02:30N 44°34' E 037°52'611.2
2017-Dec-03 02:00N 44°30' E 037°46'611.1
2017-Dec-03 01:30N 44°28' E 037°39'510.8
2017-Dec-03 01:00N 44°25' E 037°32'510.9
2017-Dec-03 00:30N 44°22' E 037°26'2210.9
2017-Dec-02 22:30N 44°13' E 036°58'5911.1
2017-Dec-02 17:12N 43°45' E 035°46'310.5
2017-Dec-02 16:55N 43°44' E 035°42'410.7
2017-Dec-02 16:30N 43°42' E 035°36'3010.8
2017-Dec-02 13:46N 43°28' E 035°00'510.7
2017-Dec-02 13:20N 43°26' E 034°55'410.8
2017-Dec-02 13:00N 43°25' E 034°50'510.9
2017-Dec-02 12:30N 43°22' E 034°44'1811.0
2017-Dec-02 10:52N 43°14' E 034°21'  
Track history (hours):
 
Tides and Currents Weather Stations Pressure Air Temp Water Temp Dewpoint Dewpoint Depression Visibility Wind Speed Wind Dir Waves Ship Positions

Sea Aeolis

Last reported at 2017-Dec-10 02:32 UTC. Time now 2017-Dec-12 20:06 UTC.
Position N 40°59' E 028°60'.

Length 108 m; draft 5.9 m.

Type: Cargo ship. MMSI: 353430000.

Date/timePositionNaut miles runAvg speedWind from/ knotsBaromVisibWave heightAir tempDewpointWater temp
2017-Dec-10 02:32N 40°59' E 028°60'012.7
2017-Dec-10 02:30N 40°59' E 028°60'611.5
2017-Dec-10 01:59N 40°54' E 028°56'4 8.6
2017-Dec-10 01:29N 40°49' E 028°55'1 2.0
2017-Dec-10 00:56N 40°49' E 028°54'26311.4
2017-Dec-09 01:54N 37°57' E 024°36'512.5
2017-Dec-09 01:30N 37°53' E 024°31'612.2
2017-Dec-09 01:00N 37°50' E 024°25'712.3
2017-Dec-09 00:27N 37°45' E 024°19'612.6
2017-Dec-08 23:57N 37°41' E 024°12'512.5
2017-Dec-08 23:30N 37°38' E 024°07'611.8
2017-Dec-08 23:00N 37°37' E 023°59'612.5
2017-Dec-08 22:30N 37°38' E 023°52'612.5
2017-Dec-08 22:00N 37°39' E 023°44'612.2
2017-Dec-08 21:30N 37°44' E 023°40'612.6
2017-Dec-08 21:00N 37°50' E 023°37'612.4
2017-Dec-08 20:30N 37°56' E 023°36'2 3.4
2017-Dec-08 20:00N 37°58' E 023°36'0 0.0
2017-Dec-08 19:30N 37°58' E 023°36'0 0.0
2017-Dec-08 19:00N 37°58' E 023°36'0 0.0
2017-Dec-08 18:30N 37°58' E 023°36'0 0.0
2017-Dec-08 18:00N 37°58' E 023°36'0 0.0
2017-Dec-08 17:30N 37°58' E 023°36'0 0.0
2017-Dec-08 16:51N 37°58' E 023°36'0 0.0
2017-Dec-08 16:30N 37°58' E 023°36'0 0.0
2017-Dec-08 16:00N 37°58' E 023°36'0 0.0
2017-Dec-08 15:30N 37°58' E 023°36'0 0.0
2017-Dec-08 15:00N 37°58' E 023°36'0 0.0
2017-Dec-08 14:30N 37°58' E 023°36'0 0.0
2017-Dec-08 14:00N 37°58' E 023°36'0 0.0
2017-Dec-08 13:30N 37°58' E 023°36'0 0.0
2017-Dec-08 13:00N 37°58' E 023°36'0 0.0
2017-Dec-08 12:30N 37°58' E 023°36'0 0.0
2017-Dec-08 12:00N 37°58' E 023°36'0 0.0
2017-Dec-08 11:30N 37°58' E 023°36'0 0.1
2017-Dec-08 11:00N 37°57' E 023°36'3 5.3
2017-Dec-08 10:30N 37°55' E 023°36'1 1.4
2017-Dec-08 10:00N 37°54' E 023°36'3 5.8
2017-Dec-08 09:30N 37°52' E 023°39'612.9
2017-Dec-08 09:00N 37°46' E 023°42'612.8
2017-Dec-08 08:31N 37°40' E 023°46'712.9
2017-Dec-08 08:00N 37°39' E 023°54'613.0
2017-Dec-08 07:30N 37°37' E 024°02'712.4
2017-Dec-08 06:59N 37°39' E 024°09'713.5
2017-Dec-08 06:28N 37°44' E 024°16'613.4
2017-Dec-08 06:00N 37°48' E 024°22'714.0
2017-Dec-08 05:31N 37°52' E 024°29'913.4
2017-Dec-08 04:50N 37°59' E 024°36'413.0
2017-Dec-08 04:30N 38°03' E 024°39'712.9
2017-Dec-08 03:56N 38°09' E 024°43'  
2017-Dec-03 22:03N 43°40' E 035°18'4912.6
2017-Dec-03 18:08N 44°03' E 036°19'312.8
2017-Dec-03 17:54N 44°04' E 036°22'512.8
2017-Dec-03 17:30N 44°06' E 036°29'612.8
2017-Dec-03 17:00N 44°09' E 036°37'612.7
2017-Dec-03 16:31N 44°11' E 036°45'812.9
2017-Dec-03 15:53N 44°15' E 036°55'513.0
2017-Dec-03 15:30N 44°18' E 037°01'713.7
2017-Dec-03 15:00N 44°21' E 037°09'813.4
2017-Dec-03 14:24N 44°24' E 037°20'612.8
2017-Dec-03 13:58N 44°27' E 037°27'612.8
2017-Dec-03 13:30N 44°29' E 037°34'612.7
2017-Dec-03 13:00N 44°32' E 037°42'612.6
2017-Dec-03 12:30N 44°37' E 037°48'4 7.9
2017-Dec-03 12:00N 44°41' E 037°50'3 5.2
2017-Dec-03 11:30N 44°43' E 037°49'0 0.0
2017-Dec-03 11:00N 44°43' E 037°49'0 0.0
2017-Dec-03 10:30N 44°43' E 037°49'0 0.0
2017-Dec-03 10:00N 44°43' E 037°49'0 0.0
2017-Dec-03 09:30N 44°43' E 037°49'0 0.0
2017-Dec-03 09:00N 44°43' E 037°49'0 0.0
2017-Dec-03 08:30N 44°43' E 037°49'0 0.0
2017-Dec-03 08:00N 44°43' E 037°49'0 0.0
2017-Dec-03 07:30N 44°43' E 037°49'0 0.0
2017-Dec-03 07:00N 44°43' E 037°49'0 0.0
2017-Dec-03 06:30N 44°43' E 037°49'0 0.0
2017-Dec-03 06:00N 44°43' E 037°49'0 0.0
2017-Dec-03 05:30N 44°43' E 037°49'0 0.0
2017-Dec-03 05:00N 44°43' E 037°49'0 0.1
2017-Dec-03 04:30N 44°43' E 037°49'1 1.4
2017-Dec-03 04:00N 44°43' E 037°49'2 4.0
2017-Dec-03 03:30N 44°41' E 037°50'3 6.4
2017-Dec-03 03:00N 44°38' E 037°52'4 8.6
2017-Dec-03 02:30N 44°34' E 037°52'611.2
2017-Dec-03 02:00N 44°30' E 037°46'611.1
2017-Dec-03 01:30N 44°28' E 037°39'510.8
2017-Dec-03 01:00N 44°25' E 037°32'510.9
2017-Dec-03 00:30N 44°22' E 037°26'2210.9
2017-Dec-02 22:30N 44°13' E 036°58'5911.1
2017-Dec-02 17:12N 43°45' E 035°46'310.5
2017-Dec-02 16:55N 43°44' E 035°42'410.7
2017-Dec-02 16:30N 43°42' E 035°36'3010.8
2017-Dec-02 13:46N 43°28' E 035°00'510.7
2017-Dec-02 13:20N 43°26' E 034°55'410.8
2017-Dec-02 13:00N 43°25' E 034°50'510.9
2017-Dec-02 12:30N 43°22' E 034°44'1811.0
2017-Dec-02 10:52N 43°14' E 034°21'  

Dump ship's entire track history